createdAt,value
2019-01-26T00:02:12.458Z,22.47
2019-01-26T00:04:41.514Z,22.37
2019-01-26T00:07:10.539Z,23.53
2019-01-26T00:09:39.640Z,23.00
2019-01-26T00:12:08.757Z,26.07
2019-01-26T00:14:37.810Z,27.50
2019-01-26T00:17:07.397Z,28.13
2019-01-26T00:19:36.534Z,27.10
2019-01-26T00:22:05.657Z,26.67
2019-01-26T00:24:34.689Z,29.83
2019-01-26T00:27:03.800Z,31.10
2019-01-26T00:29:32.899Z,27.30
2019-01-26T00:32:01.978Z,29.93
2019-01-26T00:34:31.056Z,29.13
2019-01-26T00:37:00.115Z,29.10
2019-01-26T00:39:29.218Z,26.83
2019-01-26T00:41:58.340Z,24.77
2019-01-26T00:44:27.571Z,27.50
2019-01-26T00:46:56.664Z,27.63
2019-01-26T00:49:25.810Z,27.23
2019-01-26T00:51:54.972Z,28.57
2019-01-26T00:54:24.119Z,27.30
2019-01-26T00:56:53.151Z,24.37
2019-01-26T00:59:22.311Z,25.63
2019-01-26T01:01:51.508Z,28.30
2019-01-26T01:04:20.709Z,27.80
2019-01-26T01:06:49.896Z,30.07
2019-01-26T01:09:19.024Z,33.87
2019-01-26T01:11:48.181Z,31.93
2019-01-26T01:14:17.480Z,33.57
2019-01-26T01:16:46.555Z,38.73
2019-01-26T01:19:15.807Z,49.77
2019-01-26T01:21:44.964Z,41.83
2019-01-26T01:24:14.185Z,46.10
2019-01-26T01:26:43.326Z,58.33
2019-01-26T01:29:12.571Z,50.37
2019-01-26T01:31:41.698Z,52.70
2019-01-26T01:34:10.892Z,64.97
2019-01-26T01:36:40.073Z,55.83
2019-01-26T01:39:09.792Z,54.67
2019-01-26T01:41:38.981Z,107.70
2019-01-26T01:44:08.091Z,86.57
2019-01-26T01:46:42.924Z,59.07
2019-01-26T01:49:08.126Z,51.07
2019-01-26T01:51:37.260Z,55.63
2019-01-26T01:54:06.370Z,57.20
2019-01-26T01:56:35.506Z,59.07
2019-01-26T01:59:04.658Z,68.23
2019-01-26T02:01:33.883Z,75.73
2019-01-26T02:04:03.082Z,69.10
2019-01-26T02:06:32.309Z,75.47
2019-01-26T02:09:01.424Z,72.57
2019-01-26T02:11:30.690Z,128.90
2019-01-26T02:13:59.893Z,69.03
2019-01-26T02:16:29.049Z,136.03
2019-01-26T02:18:58.134Z,87.87
2019-01-26T02:21:27.399Z,187.83
2019-01-26T02:23:56.628Z,398.17
2019-01-26T02:26:25.898Z,387.97
2019-01-26T02:28:55.148Z,345.60
2019-01-26T02:31:24.413Z,235.30
2019-01-26T02:33:53.702Z,249.37
2019-01-26T02:36:23.038Z,266.53
2019-01-26T02:38:52.255Z,140.50
2019-01-26T02:41:21.474Z,133.37
2019-01-26T02:43:50.702Z,336.33
2019-01-26T02:46:19.935Z,217.43
2019-01-26T02:48:49.133Z,254.97
2019-01-26T02:51:18.430Z,191.07
2019-01-26T02:53:47.660Z,170.50
2019-01-26T02:56:16.950Z,249.53
2019-01-26T02:58:46.171Z,87.00
2019-01-26T03:01:15.410Z,228.73
2019-01-26T03:03:44.532Z,292.70
2019-01-26T03:06:13.845Z,145.20
2019-01-26T03:08:43.055Z,279.67
2019-01-26T03:11:12.363Z,344.30
2019-01-26T03:13:41.678Z,365.80
2019-01-26T03:16:10.896Z,559.23
2019-01-26T03:18:40.070Z,375.73
2019-01-26T03:21:09.308Z,212.27
2019-01-26T03:23:38.542Z,261.47
2019-01-26T03:26:07.754Z,691.93
2019-01-26T03:28:36.975Z,157.07
2019-01-26T03:31:06.202Z,862.10
2019-01-26T03:33:35.474Z,267.30
2019-01-26T03:36:04.673Z,394.17
2019-01-26T03:38:33.921Z,492.60
2019-01-26T03:41:03.135Z,221.67
2019-01-26T03:43:32.373Z,389.10
2019-01-26T03:46:01.653Z,438.43
2019-01-26T03:48:30.828Z,291.47
2019-01-26T03:51:00.126Z,314.53
2019-01-26T03:53:29.294Z,294.47
2019-01-26T03:55:58.468Z,236.07
2019-01-26T03:58:27.642Z,202.47
2019-01-26T04:00:56.840Z,308.87
2019-01-26T04:03:26.138Z,313.80
2019-01-26T04:05:55.359Z,135.27
2019-01-26T04:08:24.589Z,198.13
2019-01-26T04:10:53.820Z,290.60
2019-01-26T04:13:23.029Z,205.33
2019-01-26T04:15:52.289Z,149.13
2019-01-26T04:18:21.586Z,156.93
2019-01-26T04:20:51.197Z,259.10
2019-01-26T04:23:20.510Z,166.87
2019-01-26T04:25:49.831Z,268.83
2019-01-26T04:28:19.017Z,230.30
2019-01-26T04:30:48.156Z,183.37
2019-01-26T04:33:17.459Z,335.03
2019-01-26T04:35:46.646Z,154.97
2019-01-26T04:38:15.865Z,158.73
2019-01-26T04:40:45.076Z,194.63
2019-01-26T04:43:14.366Z,215.47
2019-01-26T04:45:43.565Z,201.87
2019-01-26T04:48:12.771Z,298.93
2019-01-26T04:50:42.523Z,240.67
2019-01-26T04:53:11.878Z,248.43
2019-01-26T04:55:41.173Z,281.87
2019-01-26T04:58:10.446Z,240.60
2019-01-26T05:00:39.627Z,256.47
2019-01-26T05:03:08.811Z,406.13
2019-01-26T05:05:38.006Z,393.97
2019-01-26T05:08:07.219Z,248.77
2019-01-26T05:10:36.403Z,303.47
2019-01-26T05:13:05.588Z,320.07
2019-01-26T05:15:34.810Z,235.17
2019-01-26T05:18:03.946Z,344.90
2019-01-26T05:20:33.161Z,248.67
2019-01-26T05:23:02.441Z,203.80
2019-01-26T05:25:31.620Z,403.17
2019-01-26T05:28:00.952Z,347.80
2019-01-26T05:30:30.504Z,309.63
2019-01-26T05:32:59.806Z,442.60
2019-01-26T05:35:29.023Z,247.17
2019-01-26T05:37:58.277Z,236.80
2019-01-26T05:40:27.486Z,198.43
2019-01-26T05:42:56.735Z,178.77
2019-01-26T05:45:25.879Z,383.87
2019-01-26T05:47:55.143Z,261.57
2019-01-26T05:50:27.534Z,297.30
2019-01-26T05:52:56.733Z,254.60
2019-01-26T05:55:26.007Z,259.37
2019-01-26T05:57:55.120Z,245.00
2019-01-26T06:00:29.054Z,189.10
2019-01-26T06:02:58.291Z,188.07
2019-01-26T06:05:27.547Z,272.50
2019-01-26T06:07:56.855Z,149.67
2019-01-26T06:10:26.019Z,173.60
2019-01-26T06:12:55.283Z,227.70
2019-01-26T06:15:24.558Z,163.93
2019-01-26T06:17:55.208Z,189.80
2019-01-26T06:20:24.675Z,164.37
2019-01-26T06:22:53.922Z,146.80
2019-01-26T06:25:23.185Z,216.53
2019-01-26T06:27:52.384Z,180.57
2019-01-26T06:30:34.211Z,168.00
2019-01-26T06:33:03.459Z,111.17
2019-01-26T06:35:32.715Z,165.80
2019-01-26T06:38:01.935Z,153.73
2019-01-26T06:40:31.125Z,168.23
2019-01-26T06:43:00.310Z,166.87
2019-01-26T06:45:29.523Z,119.07
2019-01-26T06:48:02.325Z,138.23
2019-01-26T06:50:29.798Z,137.67
2019-01-26T06:52:59.125Z,144.97
2019-01-26T06:55:28.295Z,145.57
2019-01-26T06:57:57.441Z,156.90
2019-01-26T07:00:30.958Z,146.67
2019-01-26T07:03:00.125Z,127.87
2019-01-26T07:05:47.132Z,139.50
2019-01-26T07:08:18.635Z,153.37
2019-01-26T07:10:47.764Z,138.20
2019-01-26T07:13:17.074Z,132.27
2019-01-26T07:15:46.200Z,130.90
2019-01-26T07:18:15.284Z,123.57
2019-01-26T07:20:44.366Z,129.67
2019-01-26T07:23:19.016Z,140.83
2019-01-26T07:25:52.627Z,111.93
2019-01-26T07:28:21.855Z,125.97
2019-01-26T07:30:51.238Z,110.03
2019-01-26T07:33:20.351Z,121.63
2019-01-26T07:35:49.454Z,115.57
2019-01-26T07:38:18.655Z,109.67
2019-01-26T07:41:29.439Z,117.50
2019-01-26T07:44:40.011Z,104.73
2019-01-26T07:47:16.998Z,96.53
2019-01-26T07:49:58.891Z,96.53
2019-01-26T07:52:41.539Z,84.67
2019-01-26T07:55:12.250Z,94.53
2019-01-26T07:57:47.607Z,97.93
2019-01-26T08:00:33.971Z,92.20
2019-01-26T08:03:27.526Z,91.17
2019-01-26T08:06:02.728Z,96.37
2019-01-26T08:11:30.811Z,96.10
2019-01-26T08:14:23.201Z,94.10
2019-01-26T08:16:52.397Z,101.77
2019-01-26T08:19:21.652Z,103.23
2019-01-26T08:21:50.849Z,105.57
2019-01-26T08:24:20.053Z,97.93
2019-01-26T08:26:49.227Z,85.73
2019-01-26T08:29:18.543Z,90.53
2019-01-26T08:31:48.140Z,89.23
2019-01-26T08:34:17.424Z,91.40
2019-01-26T08:36:46.608Z,90.93
2019-01-26T08:39:15.889Z,82.23
2019-01-26T08:41:45.101Z,104.37
2019-01-26T08:44:14.400Z,94.23
2019-01-26T08:46:43.772Z,103.77
2019-01-26T08:49:13.074Z,89.27
2019-01-26T08:51:42.696Z,90.90
2019-01-26T08:54:11.900Z,88.40
2019-01-26T08:56:41.526Z,109.07
2019-01-26T08:59:10.660Z,89.20
2019-01-26T09:01:39.895Z,69.07
2019-01-26T09:04:16.150Z,83.47
2019-01-26T09:06:48.483Z,76.97
2019-01-26T09:09:19.721Z,76.33
2019-01-26T09:11:49.067Z,86.77
2019-01-26T09:14:19.299Z,65.00
2019-01-26T09:16:51.373Z,78.03
2019-01-26T09:19:20.746Z,74.27
2019-01-26T09:21:52.877Z,71.67
2019-01-26T09:24:22.073Z,80.10
2019-01-26T09:26:51.345Z,68.43
2019-01-26T09:29:20.490Z,71.97
2019-01-26T09:31:49.928Z,65.07
2019-01-26T09:34:19.221Z,65.93
2019-01-26T09:36:48.446Z,63.37
2019-01-26T09:39:17.701Z,66.60
2019-01-26T09:41:46.921Z,62.37
2019-01-26T09:44:16.235Z,56.30
2019-01-26T09:46:45.507Z,51.10
2019-01-26T09:49:14.784Z,54.50
2019-01-26T09:51:44.381Z,54.13
2019-01-26T09:54:13.704Z,44.60
2019-01-26T09:56:43.353Z,45.13
2019-01-26T09:59:13.676Z,46.90
2019-01-26T10:01:42.934Z,42.53
2019-01-26T10:04:12.234Z,45.77
2019-01-26T10:06:41.481Z,43.60
2019-01-26T10:09:13.070Z,36.30
2019-01-26T10:11:42.316Z,41.93
2019-01-26T10:14:11.543Z,43.33
2019-01-26T10:16:40.717Z,38.17
2019-01-26T10:19:09.933Z,38.00
2019-01-26T10:21:39.101Z,37.93
2019-01-26T10:24:08.225Z,41.40
2019-01-26T10:26:37.747Z,41.47
2019-01-26T10:29:06.954Z,43.10
2019-01-26T10:31:36.151Z,35.00
2019-01-26T10:34:06.655Z,37.27
2019-01-26T10:36:53.781Z,37.07
2019-01-26T10:39:25.706Z,34.07
2019-01-26T10:42:13.802Z,33.83
2019-01-26T10:44:42.964Z,34.10
2019-01-26T10:47:12.216Z,37.10
2019-01-26T10:49:42.549Z,31.33
2019-01-26T10:52:11.946Z,32.50
2019-01-26T10:54:41.217Z,35.33
2019-01-26T10:57:10.321Z,32.83
2019-01-26T10:59:39.791Z,34.73
2019-01-26T11:02:09.149Z,39.23
2019-01-26T11:04:41.639Z,31.07
2019-01-26T11:07:12.915Z,25.73
2019-01-26T11:09:45.051Z,32.20
2019-01-26T11:12:16.173Z,29.20
2019-01-26T11:28:37.884Z,33.23
2019-01-26T11:31:24.350Z,27.20
2019-01-26T11:33:53.701Z,31.83
2019-01-26T11:36:25.173Z,27.33
2019-01-26T11:38:54.601Z,29.33
2019-01-26T11:41:25.515Z,31.70
2019-01-26T11:43:54.904Z,31.43
2019-01-26T11:46:36.965Z,24.27
2019-01-26T11:49:06.253Z,24.20
2019-01-26T11:52:03.665Z,27.83
2019-01-26T11:54:33.089Z,27.53
2019-01-26T11:57:19.818Z,25.57
2019-01-26T12:00:06.676Z,24.10
2019-01-26T12:02:51.544Z,28.70
2019-01-26T12:05:34.572Z,24.20
2019-01-26T12:08:03.762Z,24.00
2019-01-26T12:10:32.995Z,24.77
2019-01-26T12:13:02.219Z,24.40
2019-01-26T12:15:34.783Z,26.03
2019-01-26T12:18:04.077Z,26.87
2019-01-26T12:20:33.440Z,28.63
2019-01-26T12:23:02.806Z,24.80
2019-01-26T12:25:32.216Z,28.60
2019-01-26T12:28:01.782Z,27.43
2019-01-26T12:30:31.862Z,24.00
2019-01-26T12:33:01.158Z,24.70
2019-01-26T12:35:30.526Z,22.33
2019-01-26T12:37:59.659Z,23.10
2019-01-26T12:40:29.893Z,24.17
2019-01-26T12:42:59.405Z,21.97
2019-01-26T12:45:28.611Z,22.87
2019-01-26T12:48:00.822Z,18.60
2019-01-26T12:50:29.534Z,23.60
2019-01-26T12:52:58.917Z,20.50
2019-01-26T12:55:28.280Z,19.60
2019-01-26T12:57:57.522Z,19.77
2019-01-26T13:00:26.911Z,19.80
2019-01-26T13:02:56.496Z,18.93
2019-01-26T13:05:25.707Z,17.50
2019-01-26T13:07:55.115Z,20.13
2019-01-26T13:10:28.917Z,19.57
2019-01-26T13:12:58.422Z,16.50
2019-01-26T13:15:27.632Z,17.50
2019-01-26T13:17:57.135Z,21.87
2019-01-26T13:20:26.421Z,19.10
2019-01-26T13:22:55.870Z,18.63
2019-01-26T13:25:25.061Z,21.00
2019-01-26T13:27:54.777Z,16.90
2019-01-26T13:30:24.139Z,16.10
2019-01-26T13:32:53.575Z,19.37
2019-01-26T13:35:23.183Z,18.90
2019-01-26T13:37:52.796Z,15.50
2019-01-26T13:40:22.125Z,16.10
2019-01-26T13:42:53.469Z,15.60
2019-01-26T13:45:22.657Z,13.20
2019-01-26T13:47:55.591Z,12.43
2019-01-26T13:50:27.215Z,13.43
2019-01-26T13:52:56.233Z,11.67
2019-01-26T13:55:25.396Z,12.13
2019-01-26T13:57:55.048Z,11.37
2019-01-26T14:00:27.242Z,10.03
2019-01-26T14:02:56.787Z,9.57
2019-01-26T14:05:28.272Z,12.97
2019-01-26T14:08:00.031Z,9.57
2019-01-26T14:11:05.394Z,10.07
2019-01-26T14:13:40.677Z,8.53
2019-01-26T14:16:10.509Z,8.30
2019-01-26T14:18:39.997Z,9.43
2019-01-26T14:21:09.586Z,9.77
2019-01-26T14:23:39.158Z,9.00
2019-01-26T14:26:17.662Z,9.83
2019-01-26T14:29:42.374Z,9.80
2019-01-26T14:32:20.265Z,9.17
2019-01-26T14:34:53.419Z,8.87
2019-01-26T14:37:25.769Z,9.33
2019-01-26T14:39:55.055Z,10.70
2019-01-26T14:42:25.456Z,10.03
2019-01-26T14:44:59.091Z,9.33
2019-01-26T14:50:27.607Z,7.63
2019-01-26T14:53:12.251Z,8.70
2019-01-26T14:55:49.918Z,8.33
2019-01-26T14:58:21.911Z,7.97
2019-01-26T15:00:54.362Z,7.67
2019-01-26T15:03:26.694Z,8.40
2019-01-26T15:06:00.536Z,7.97
2019-01-26T15:08:34.312Z,8.17
2019-01-26T15:11:06.811Z,9.23
2019-01-26T15:13:53.405Z,8.40
2019-01-26T15:16:57.625Z,8.90
2019-01-26T15:19:17.411Z,9.23
2019-01-26T15:21:48.133Z,9.37
2019-01-26T15:24:22.657Z,11.37
2019-01-26T15:26:52.329Z,12.90
2019-01-26T15:29:22.166Z,10.90
2019-01-26T15:31:51.725Z,11.60
2019-01-26T15:34:23.070Z,11.60
2019-01-26T15:36:58.022Z,13.10
2019-01-26T15:39:27.481Z,12.80
2019-01-26T15:41:58.563Z,12.33
2019-01-26T15:44:34.420Z,11.50
2019-01-26T15:47:08.555Z,10.07
2019-01-26T15:49:40.393Z,9.80
2019-01-26T15:52:19.651Z,10.43
2019-01-26T15:54:57.313Z,9.37
2019-01-26T15:57:26.730Z,7.60
2019-01-26T15:59:56.315Z,8.00
2019-01-26T16:02:28.839Z,7.57
2019-01-26T16:05:07.787Z,6.83
2019-01-26T16:07:37.497Z,7.87
2019-01-26T16:12:50.646Z,8.10
2019-01-26T16:15:41.362Z,7.17
2019-01-26T16:18:13.670Z,7.23
2019-01-26T16:20:58.063Z,7.80
2019-01-26T16:23:27.754Z,8.77
2019-01-26T16:26:06.599Z,7.57
2019-01-26T16:31:44.275Z,9.17
2019-01-26T16:34:15.709Z,9.50
2019-01-26T16:36:52.670Z,8.63
2019-01-26T16:47:34.166Z,8.43
2019-01-26T17:48:51.319Z,6.30
2019-01-26T17:51:57.031Z,6.23
2019-01-26T17:54:23.875Z,6.27
2019-01-26T17:56:59.588Z,5.77
2019-01-26T18:00:10.877Z,6.00
2019-01-26T18:02:46.746Z,7.33
2019-01-26T18:05:16.164Z,5.90
2019-01-26T18:07:46.383Z,5.87
2019-01-26T18:10:17.342Z,6.03
2019-01-26T18:12:51.655Z,5.13
2019-01-26T18:15:24.135Z,6.10
2019-01-26T18:18:29.707Z,6.20
2019-01-26T18:21:46.111Z,5.87
2019-01-26T19:08:59.193Z,6.37
2019-01-26T19:11:41.663Z,6.87
2019-01-26T19:14:13.630Z,5.80
2019-01-26T19:16:46.368Z,6.60
2019-01-26T19:19:51.569Z,5.23
2019-01-26T19:22:45.393Z,4.40
2019-01-26T19:25:31.044Z,5.90
2019-01-26T19:28:11.478Z,5.20
2019-01-26T19:30:40.829Z,5.90
2019-01-26T19:33:10.020Z,6.20
2019-01-26T19:35:39.246Z,7.23
2019-01-26T19:38:08.419Z,4.10
2019-01-26T19:40:37.518Z,5.53
2019-01-26T19:43:06.737Z,6.30
2019-01-26T19:45:35.971Z,5.03
2019-01-26T19:48:05.158Z,5.40
2019-01-26T19:50:34.559Z,6.10
2019-01-26T19:53:03.729Z,5.63
2019-01-26T19:55:32.892Z,5.00
2019-01-26T19:58:02.100Z,4.20
2019-01-26T20:00:32.988Z,4.87
2019-01-26T20:03:02.180Z,5.07
2019-01-26T20:05:31.224Z,5.50
2019-01-26T20:08:00.392Z,4.07
2019-01-26T20:10:29.587Z,4.73
2019-01-26T20:12:58.757Z,4.03
2019-01-26T20:15:27.927Z,3.87
2019-01-26T20:17:57.094Z,4.57
2019-01-26T20:20:28.902Z,4.27
2019-01-26T20:22:58.054Z,3.80
2019-01-26T20:25:27.173Z,3.27
2019-01-26T20:27:56.263Z,3.57
2019-01-26T20:30:27.719Z,3.80
2019-01-26T20:32:56.907Z,2.90
2019-01-26T20:35:26.134Z,3.67
2019-01-26T20:37:56.042Z,3.20
2019-01-26T20:40:25.425Z,3.90
2019-01-26T20:42:54.930Z,3.50
2019-01-26T20:45:25.714Z,3.60
2019-01-26T20:47:55.258Z,3.40
2019-01-26T20:50:30.005Z,2.77
2019-01-26T20:52:59.514Z,3.27
2019-01-26T20:55:28.632Z,3.23
2019-01-26T20:57:57.821Z,3.30
2019-01-26T21:00:28.655Z,2.80
2019-01-26T21:02:57.870Z,3.57
2019-01-26T21:05:27.072Z,4.03
2019-01-26T21:07:56.251Z,3.20
2019-01-26T21:10:27.449Z,4.03
2019-01-26T21:13:00.355Z,3.10
2019-01-26T21:15:29.586Z,2.97
2019-01-26T21:17:58.737Z,3.20
2019-01-26T21:20:27.942Z,3.47
2019-01-26T21:22:57.148Z,3.67
2019-01-26T21:25:26.328Z,2.97
2019-01-26T21:27:55.485Z,2.30
2019-01-26T21:30:26.354Z,3.10
2019-01-26T21:32:55.838Z,2.30
2019-01-26T21:35:25.491Z,2.37
2019-01-26T21:37:54.640Z,2.70
2019-01-26T21:40:28.956Z,2.47
2019-01-26T21:42:58.360Z,2.30
2019-01-26T21:45:27.564Z,2.40
2019-01-26T21:47:56.702Z,2.03
2019-01-26T21:50:30.061Z,2.03
2019-01-26T21:52:59.208Z,1.37
2019-01-26T21:55:28.423Z,2.10
2019-01-26T21:57:57.590Z,2.37
2019-01-26T22:00:31.366Z,2.50
2019-01-26T22:03:00.635Z,2.07
2019-01-26T22:05:29.737Z,1.90
2019-01-26T22:07:58.931Z,1.53
2019-01-26T22:10:28.067Z,2.90
2019-01-26T22:12:57.235Z,2.20
2019-01-26T22:15:50.868Z,1.90
2019-01-26T22:18:20.015Z,2.10
2019-01-26T22:20:49.162Z,2.20
2019-01-26T22:23:18.312Z,1.50
2019-01-26T22:25:47.365Z,2.60
2019-01-26T22:28:16.497Z,2.07
2019-01-26T22:30:45.632Z,1.50
2019-01-26T22:33:14.855Z,1.80
2019-01-26T22:35:43.942Z,2.07
2019-01-26T22:38:12.999Z,1.90
2019-01-26T22:40:42.090Z,2.07
2019-01-26T22:43:11.176Z,2.27
2019-01-26T22:45:40.551Z,2.00
2019-01-26T22:48:10.533Z,2.00
2019-01-26T22:50:39.560Z,1.73
2019-01-26T22:53:08.615Z,2.07
2019-01-26T22:55:37.654Z,1.83
2019-01-26T22:58:08.042Z,2.20
2019-01-26T23:01:07.255Z,1.50
2019-01-26T23:04:00.745Z,1.57
2019-01-26T23:06:46.494Z,2.50
2019-01-26T23:09:36.393Z,1.80
2019-01-26T23:12:59.379Z,1.73
2019-01-26T23:16:33.705Z,1.57
2019-01-26T23:19:45.764Z,1.67
2019-01-26T23:22:56.062Z,1.67
2019-01-26T23:26:10.833Z,1.90
2019-01-26T23:29:08.367Z,4.23
2019-01-26T23:31:37.550Z,2.00
2019-01-26T23:34:06.796Z,2.40
2019-01-26T23:36:35.992Z,3.23
2019-01-26T23:39:06.276Z,1.70
2019-01-26T23:41:35.373Z,1.93
2019-01-26T23:44:04.478Z,2.40
2019-01-26T23:46:33.660Z,1.87
2019-01-26T23:49:02.856Z,1.60
2019-01-26T23:51:32.212Z,2.00
2019-01-26T23:54:01.376Z,1.80
2019-01-26T23:56:30.531Z,1.87
2019-01-26T23:58:59.649Z,1.67
